sensor_id;sensor_type;location;lat;lon;timestamp;temperature;humidity
33269;DHT22;19640;50.944;5.260;2023-10-31T00:01:49;11.50;99.90
33269;DHT22;19640;50.944;5.260;2023-10-31T00:04:15;11.60;99.90
33269;DHT22;19640;50.944;5.260;2023-10-31T00:06:41;11.40;99.90
33269;DHT22;19640;50.944;5.260;2023-10-31T00:09:07;11.40;99.90
33269;DHT22;19640;50.944;5.260;2023-10-31T00:11:33;11.50;99.90
33269;DHT22;19640;50.944;5.260;2023-10-31T00:13:59;11.40;99.90
33269;DHT22;19640;50.944;5.260;2023-10-31T00:16:27;11.40;99.90
33269;DHT22;19640;50.944;5.260;2023-10-31T00:18:53;11.30;99.90
33269;DHT22;19640;50.944;5.260;2023-10-31T00:21:19;11.30;99.90
33269;DHT22;19640;50.944;5.260;2023-10-31T00:23:46;11.30;99.90
33269;DHT22;19640;50.944;5.260;2023-10-31T00:26:11;11.30;99.90
33269;DHT22;19640;50.944;5.260;2023-10-31T00:28:37;11.50;99.90
33269;DHT22;19640;50.944;5.260;2023-10-31T00:31:03;11.30;99.90
33269;DHT22;19640;50.944;5.260;2023-10-31T00:33:34;11.30;99.90
33269;DHT22;19640;50.944;5.260;2023-10-31T00:36:01;11.30;99.90
33269;DHT22;19640;50.944;5.260;2023-10-31T00:38:28;11.20;99.90
33269;DHT22;19640;50.944;5.260;2023-10-31T00:40:53;11.30;99.90
33269;DHT22;19640;50.944;5.260;2023-10-31T00:43:19;11.30;99.90
33269;DHT22;19640;50.944;5.260;2023-10-31T00:45:44;11.20;99.90
33269;DHT22;19640;50.944;5.260;2023-10-31T00:48:10;11.20;99.90
33269;DHT22;19640;50.944;5.260;2023-10-31T00:50:37;11.30;99.90
33269;DHT22;19640;50.944;5.260;2023-10-31T00:53:02;11.20;99.90
33269;DHT22;19640;50.944;5.260;2023-10-31T00:55:28;11.30;99.90
33269;DHT22;19640;50.944;5.260;2023-10-31T00:57:55;11.40;99.90
33269;DHT22;19640;50.944;5.260;2023-10-31T01:00:20;11.30;99.90
33269;DHT22;19640;50.944;5.260;2023-10-31T01:02:46;11.30;99.90
33269;DHT22;19640;50.944;5.260;2023-10-31T01:05:13;11.40;99.90
33269;DHT22;19640;50.944;5.260;2023-10-31T01:07:38;11.40;99.90
33269;DHT22;19640;50.944;5.260;2023-10-31T01:10:04;11.30;99.90
33269;DHT22;19640;50.944;5.260;2023-10-31T01:12:30;11.40;99.90
33269;DHT22;19640;50.944;5.260;2023-10-31T01:14:56;11.40;99.90
33269;DHT22;19640;50.944;5.260;2023-10-31T01:17:22;11.30;99.90
33269;DHT22;19640;50.944;5.260;2023-10-31T01:19:48;11.30;99.90
33269;DHT22;19640;50.944;5.260;2023-10-31T01:22:13;11.30;99.90
33269;DHT22;19640;50.944;5.260;2023-10-31T01:24:39;11.20;99.90
33269;DHT22;19640;50.944;5.260;2023-10-31T01:27:05;11.30;99.90
33269;DHT22;19640;50.944;5.260;2023-10-31T01:29:31;11.30;99.90
33269;DHT22;19640;50.944;5.260;2023-10-31T01:31:56;11.40;99.90
33269;DHT22;19640;50.944;5.260;2023-10-31T01:34:28;11.40;99.90
33269;DHT22;19640;50.944;5.260;2023-10-31T01:36:55;11.20;99.90
33269;DHT22;19640;50.944;5.260;2023-10-31T01:39:21;11.30;99.90
33269;DHT22;19640;50.944;5.260;2023-10-31T01:41:46;11.30;99.90
33269;DHT22;19640;50.944;5.260;2023-10-31T01:44:12;11.30;99.90
33269;DHT22;19640;50.944;5.260;2023-10-31T01:46:38;11.30;99.90
33269;DHT22;19640;50.944;5.260;2023-10-31T01:49:04;11.30;99.90
33269;DHT22;19640;50.944;5.260;2023-10-31T01:51:29;11.30;99.90
33269;DHT22;19640;50.944;5.260;2023-10-31T01:53:56;11.30;99.90
33269;DHT22;19640;50.944;5.260;2023-10-31T01:56:22;11.30;99.90
33269;DHT22;19640;50.944;5.260;2023-10-31T01:58:49;11.40;99.90
33269;DHT22;19640;50.944;5.260;2023-10-31T02:01:15;11.30;99.90
33269;DHT22;19640;50.944;5.260;2023-10-31T02:03:41;11.40;99.90
33269;DHT22;19640;50.944;5.260;2023-10-31T02:06:07;11.60;99.90
33269;DHT22;19640;50.944;5.260;2023-10-31T02:08:33;11.60;99.90
33269;DHT22;19640;50.944;5.260;2023-10-31T02:10:58;11.60;99.90
33269;DHT22;19640;50.944;5.260;2023-10-31T02:13:24;11.40;99.90
33269;DHT22;19640;50.944;5.260;2023-10-31T02:15:51;11.30;99.90
33269;DHT22;19640;50.944;5.260;2023-10-31T02:18:17;11.30;99.90
33269;DHT22;19640;50.944;5.260;2023-10-31T02:20:43;11.40;99.90
33269;DHT22;19640;50.944;5.260;2023-10-31T02:23:09;11.50;99.90
33269;DHT22;19640;50.944;5.260;2023-10-31T02:25:36;11.50;99.90
33269;DHT22;19640;50.944;5.260;2023-10-31T02:28:01;11.50;99.90
33269;DHT22;19640;50.944;5.260;2023-10-31T02:30:27;11.60;99.90
33269;DHT22;19640;50.944;5.260;2023-10-31T02:32:53;11.60;99.90
33269;DHT22;19640;50.944;5.260;2023-10-31T02:35:19;11.60;99.90
33269;DHT22;19640;50.944;5.260;2023-10-31T02:37:45;11.50;99.90
33269;DHT22;19640;50.944;5.260;2023-10-31T02:40:13;11.60;99.90
33269;DHT22;19640;50.944;5.260;2023-10-31T02:42:39;11.30;99.90
33269;DHT22;19640;50.944;5.260;2023-10-31T02:45:05;11.30;99.90
33269;DHT22;19640;50.944;5.260;2023-10-31T02:47:30;11.20;99.90
33269;DHT22;19640;50.944;5.260;2023-10-31T02:49:56;11.20;99.90
33269;DHT22;19640;50.944;5.260;2023-10-31T02:52:22;11.30;99.90
33269;DHT22;19640;50.944;5.260;2023-10-31T02:54:48;11.40;99.90
33269;DHT22;19640;50.944;5.260;2023-10-31T02:57:14;11.40;99.90
33269;DHT22;19640;50.944;5.260;2023-10-31T02:59:39;11.60;99.90
33269;DHT22;19640;50.944;5.260;2023-10-31T03:02:05;11.40;99.90
33269;DHT22;19640;50.944;5.260;2023-10-31T03:04:31;11.30;99.90
33269;DHT22;19640;50.944;5.260;2023-10-31T03:06:56;11.30;99.90
33269;DHT22;19640;50.944;5.260;2023-10-31T03:09:22;11.30;99.90
33269;DHT22;19640;50.944;5.260;2023-10-31T03:11:47;11.20;99.90
33269;DHT22;19640;50.944;5.260;2023-10-31T03:14:13;11.30;99.90
33269;DHT22;19640;50.944;5.260;2023-10-31T03:16:39;11.40;99.90
33269;DHT22;19640;50.944;5.260;2023-10-31T03:19:05;11.50;99.90
33269;DHT22;19640;50.944;5.260;2023-10-31T03:21:30;11.40;99.90
33269;DHT22;19640;50.944;5.260;2023-10-31T03:23:57;11.50;99.90
33269;DHT22;19640;50.944;5.260;2023-10-31T03:26:23;11.50;99.90
33269;DHT22;19640;50.944;5.260;2023-10-31T03:28:48;11.40;99.90
33269;DHT22;19640;50.944;5.260;2023-10-31T03:31:15;11.30;99.90
33269;DHT22;19640;50.944;5.260;2023-10-31T03:33:41;11.30;99.90
33269;DHT22;19640;50.944;5.260;2023-10-31T03:36:08;11.30;99.90
33269;DHT22;19640;50.944;5.260;2023-10-31T03:38:36;11.40;99.90
33269;DHT22;19640;50.944;5.260;2023-10-31T03:41:02;11.20;99.90
33269;DHT22;19640;50.944;5.260;2023-10-31T03:43:28;11.30;99.90
33269;DHT22;19640;50.944;5.260;2023-10-31T03:45:54;11.40;99.90
33269;DHT22;19640;50.944;5.260;2023-10-31T03:48:20;11.40;99.90
33269;DHT22;19640;50.944;5.260;2023-10-31T03:50:46;11.40;99.90
33269;DHT22;19640;50.944;5.260;2023-10-31T03:53:12;11.20;99.90
33269;DHT22;19640;50.944;5.260;2023-10-31T03:55:43;11.20;99.90
33269;DHT22;19640;50.944;5.260;2023-10-31T03:58:09;11.10;99.90
33269;DHT22;19640;50.944;5.260;2023-10-31T04:00:35;11.10;99.90
33269;DHT22;19640;50.944;5.260;2023-10-31T04:03:01;11.10;99.90
33269;DHT22;19640;50.944;5.260;2023-10-31T04:05:27;11.10;99.90
33269;DHT22;19640;50.944;5.260;2023-10-31T04:07:53;11.10;99.90
33269;DHT22;19640;50.944;5.260;2023-10-31T04:10:19;11.20;99.90
33269;DHT22;19640;50.944;5.260;2023-10-31T04:12:45;11.20;99.90
33269;DHT22;19640;50.944;5.260;2023-10-31T04:15:11;11.20;99.90
33269;DHT22;19640;50.944;5.260;2023-10-31T04:17:37;11.30;99.90
33269;DHT22;19640;50.944;5.260;2023-10-31T04:20:04;11.20;99.90
33269;DHT22;19640;50.944;5.260;2023-10-31T04:22:29;11.30;99.90
33269;DHT22;19640;50.944;5.260;2023-10-31T04:24:55;11.20;99.90
33269;DHT22;19640;50.944;5.260;2023-10-31T04:27:21;11.00;99.90
33269;DHT22;19640;50.944;5.260;2023-10-31T04:29:47;11.00;99.90
33269;DHT22;19640;50.944;5.260;2023-10-31T04:32:14;11.00;99.90
33269;DHT22;19640;50.944;5.260;2023-10-31T04:34:40;10.90;99.90
33269;DHT22;19640;50.944;5.260;2023-10-31T04:37:05;10.90;99.90
33269;DHT22;19640;50.944;5.260;2023-10-31T04:39:31;11.00;99.90
33269;DHT22;19640;50.944;5.260;2023-10-31T04:41:57;10.90;99.90
33269;DHT22;19640;50.944;5.260;2023-10-31T04:44:22;10.90;99.90
33269;DHT22;19640;50.944;5.260;2023-10-31T04:46:48;10.80;99.90
33269;DHT22;19640;50.944;5.260;2023-10-31T04:49:14;10.80;99.90
33269;DHT22;19640;50.944;5.260;2023-10-31T04:51:40;10.80;99.90
33269;DHT22;19640;50.944;5.260;2023-10-31T04:54:06;10.70;99.90
33269;DHT22;19640;50.944;5.260;2023-10-31T04:56:32;10.70;99.90
33269;DHT22;19640;50.944;5.260;2023-10-31T04:58:58;10.70;99.90
33269;DHT22;19640;50.944;5.260;2023-10-31T05:01:24;10.70;99.90
33269;DHT22;19640;50.944;5.260;2023-10-31T05:03:50;10.70;99.90
33269;DHT22;19640;50.944;5.260;2023-10-31T05:06:20;10.70;99.90
33269;DHT22;19640;50.944;5.260;2023-10-31T05:08:47;10.80;99.90
33269;DHT22;19640;50.944;5.260;2023-10-31T05:11:12;10.70;99.90
33269;DHT22;19640;50.944;5.260;2023-10-31T05:13:39;10.50;99.90
33269;DHT22;19640;50.944;5.260;2023-10-31T05:16:05;10.60;99.90
33269;DHT22;19640;50.944;5.260;2023-10-31T05:18:31;10.60;99.90
33269;DHT22;19640;50.944;5.260;2023-10-31T05:20:56;10.50;99.90
33269;DHT22;19640;50.944;5.260;2023-10-31T05:23:23;10.40;99.90
33269;DHT22;19640;50.944;5.260;2023-10-31T05:25:48;10.50;99.90
33269;DHT22;19640;50.944;5.260;2023-10-31T05:28:14;10.30;99.90
33269;DHT22;19640;50.944;5.260;2023-10-31T05:30:40;10.40;99.90
33269;DHT22;19640;50.944;5.260;2023-10-31T05:33:05;10.40;99.90
33269;DHT22;19640;50.944;5.260;2023-10-31T05:35:32;10.40;99.90
33269;DHT22;19640;50.944;5.260;2023-10-31T05:37:58;10.30;99.90
33269;DHT22;19640;50.944;5.260;2023-10-31T05:40:23;10.30;99.90
33269;DHT22;19640;50.944;5.260;2023-10-31T05:42:50;10.50;99.90
33269;DHT22;19640;50.944;5.260;2023-10-31T05:45:16;10.50;99.90
33269;DHT22;19640;50.944;5.260;2023-10-31T05:47:43;10.60;99.90
33269;DHT22;19640;50.944;5.260;2023-10-31T05:50:09;10.60;99.90
33269;DHT22;19640;50.944;5.260;2023-10-31T05:52:34;10.70;99.90
33269;DHT22;19640;50.944;5.260;2023-10-31T05:55:00;10.50;99.90
33269;DHT22;19640;50.944;5.260;2023-10-31T05:57:26;10.40;99.90
33269;DHT22;19640;50.944;5.260;2023-10-31T05:59:51;10.40;99.90
33269;DHT22;19640;50.944;5.260;2023-10-31T06:02:17;10.40;99.90
33269;DHT22;19640;50.944;5.260;2023-10-31T06:04:43;10.50;99.90
33269;DHT22;19640;50.944;5.260;2023-10-31T06:07:11;10.50;99.90
33269;DHT22;19640;50.944;5.260;2023-10-31T06:09:36;10.40;99.90
33269;DHT22;19640;50.944;5.260;2023-10-31T06:12:02;10.60;99.90
33269;DHT22;19640;50.944;5.260;2023-10-31T06:14:28;10.40;99.90
33269;DHT22;19640;50.944;5.260;2023-10-31T06:16:54;10.30;99.90
33269;DHT22;19640;50.944;5.260;2023-10-31T06:19:20;10.30;99.90
33269;DHT22;19640;50.944;5.260;2023-10-31T06:21:46;10.30;99.90
33269;DHT22;19640;50.944;5.260;2023-10-31T06:24:12;10.40;99.90
33269;DHT22;19640;50.944;5.260;2023-10-31T06:26:38;10.40;99.90
33269;DHT22;19640;50.944;5.260;2023-10-31T06:29:05;10.30;99.90
33269;DHT22;19640;50.944;5.260;2023-10-31T06:31:31;10.30;99.90
33269;DHT22;19640;50.944;5.260;2023-10-31T06:33:56;10.30;99.90
33269;DHT22;19640;50.944;5.260;2023-10-31T06:36:22;10.30;99.90
33269;DHT22;19640;50.944;5.260;2023-10-31T06:38:48;10.30;99.90
33269;DHT22;19640;50.944;5.260;2023-10-31T06:41:13;10.30;99.90
33269;DHT22;19640;50.944;5.260;2023-10-31T06:43:40;10.30;99.90
33269;DHT22;19640;50.944;5.260;2023-10-31T06:46:06;10.30;99.90
33269;DHT22;19640;50.944;5.260;2023-10-31T06:48:32;10.30;99.90
33269;DHT22;19640;50.944;5.260;2023-10-31T06:50:58;10.20;99.90
33269;DHT22;19640;50.944;5.260;2023-10-31T06:53:23;10.20;99.90
33269;DHT22;19640;50.944;5.260;2023-10-31T06:55:50;10.20;99.90
33269;DHT22;19640;50.944;5.260;2023-10-31T06:58:16;10.30;99.90
33269;DHT22;19640;50.944;5.260;2023-10-31T07:00:41;10.30;99.90
33269;DHT22;19640;50.944;5.260;2023-10-31T07:03:08;10.30;99.90
33269;DHT22;19640;50.944;5.260;2023-10-31T07:05:38;10.30;99.90
33269;DHT22;19640;50.944;5.260;2023-10-31T07:08:04;10.30;99.90
33269;DHT22;19640;50.944;5.260;2023-10-31T07:10:30;10.30;99.90
33269;DHT22;19640;50.944;5.260;2023-10-31T07:12:56;10.50;99.90
33269;DHT22;19640;50.944;5.260;2023-10-31T07:15:24;10.50;99.90
33269;DHT22;19640;50.944;5.260;2023-10-31T07:17:50;10.40;99.90
33269;DHT22;19640;50.944;5.260;2023-10-31T07:20:15;10.50;99.90
33269;DHT22;19640;50.944;5.260;2023-10-31T07:22:41;10.60;99.90
33269;DHT22;19640;50.944;5.260;2023-10-31T07:25:07;10.50;99.90
33269;DHT22;19640;50.944;5.260;2023-10-31T07:27:33;10.50;99.90
33269;DHT22;19640;50.944;5.260;2023-10-31T07:29:58;10.50;99.90
33269;DHT22;19640;50.944;5.260;2023-10-31T07:32:25;10.50;99.90
33269;DHT22;19640;50.944;5.260;2023-10-31T07:34:51;10.70;99.90
33269;DHT22;19640;50.944;5.260;2023-10-31T07:37:17;10.60;99.90
33269;DHT22;19640;50.944;5.260;2023-10-31T07:39:43;10.70;99.90
33269;DHT22;19640;50.944;5.260;2023-10-31T07:42:08;10.70;99.90
33269;DHT22;19640;50.944;5.260;2023-10-31T07:44:34;10.70;99.90
33269;DHT22;19640;50.944;5.260;2023-10-31T07:47:00;10.60;99.90
33269;DHT22;19640;50.944;5.260;2023-10-31T07:49:25;10.70;99.90
33269;DHT22;19640;50.944;5.260;2023-10-31T07:51:51;10.70;99.90
33269;DHT22;19640;50.944;5.260;2023-10-31T07:54:17;10.70;99.90
33269;DHT22;19640;50.944;5.260;2023-10-31T07:56:44;10.70;99.90
33269;DHT22;19640;50.944;5.260;2023-10-31T07:59:09;10.80;99.90
33269;DHT22;19640;50.944;5.260;2023-10-31T08:01:35;10.90;99.90
33269;DHT22;19640;50.944;5.260;2023-10-31T08:04:01;11.00;99.90
33269;DHT22;19640;50.944;5.260;2023-10-31T08:06:27;11.30;99.90
33269;DHT22;19640;50.944;5.260;2023-10-31T08:08:53;11.30;99.90
33269;DHT22;19640;50.944;5.260;2023-10-31T08:11:18;11.30;99.90
33269;DHT22;19640;50.944;5.260;2023-10-31T08:13:44;11.30;99.90
33269;DHT22;19640;50.944;5.260;2023-10-31T08:16:10;11.30;99.90
33269;DHT22;19640;50.944;5.260;2023-10-31T08:18:41;11.40;99.90
33269;DHT22;19640;50.944;5.260;2023-10-31T08:21:07;11.40;99.90
33269;DHT22;19640;50.944;5.260;2023-10-31T08:23:33;11.60;99.90
33269;DHT22;19640;50.944;5.260;2023-10-31T08:25:59;11.60;99.90
33269;DHT22;19640;50.944;5.260;2023-10-31T08:28:25;11.60;99.90
33269;DHT22;19640;50.944;5.260;2023-10-31T08:30:50;11.70;99.90
33269;DHT22;19640;50.944;5.260;2023-10-31T08:33:16;11.80;99.90
33269;DHT22;19640;50.944;5.260;2023-10-31T08:35:42;11.80;99.90
33269;DHT22;19640;50.944;5.260;2023-10-31T08:38:08;12.00;99.90
33269;DHT22;19640;50.944;5.260;2023-10-31T08:40:33;12.00;99.90
33269;DHT22;19640;50.944;5.260;2023-10-31T08:43:00;12.10;99.90
33269;DHT22;19640;50.944;5.260;2023-10-31T08:45:26;12.10;99.90
33269;DHT22;19640;50.944;5.260;2023-10-31T08:47:51;12.20;99.90
33269;DHT22;19640;50.944;5.260;2023-10-31T08:50:17;12.30;99.90
33269;DHT22;19640;50.944;5.260;2023-10-31T08:52:43;12.40;99.90
33269;DHT22;19640;50.944;5.260;2023-10-31T08:55:08;12.50;99.90
33269;DHT22;19640;50.944;5.260;2023-10-31T08:57:34;12.50;99.90
33269;DHT22;19640;50.944;5.260;2023-10-31T09:00:00;12.50;99.90
33269;DHT22;19640;50.944;5.260;2023-10-31T09:02:26;12.60;99.90
33269;DHT22;19640;50.944;5.260;2023-10-31T09:04:52;12.70;99.90
33269;DHT22;19640;50.944;5.260;2023-10-31T09:07:19;12.90;99.90
33269;DHT22;19640;50.944;5.260;2023-10-31T09:09:44;13.20;99.90
33269;DHT22;19640;50.944;5.260;2023-10-31T09:12:10;12.80;99.90
33269;DHT22;19640;50.944;5.260;2023-10-31T09:14:35;12.70;99.90
33269;DHT22;19640;50.944;5.260;2023-10-31T09:17:02;12.80;99.90
33269;DHT22;19640;50.944;5.260;2023-10-31T09:19:28;12.80;99.90
33269;DHT22;19640;50.944;5.260;2023-10-31T09:21:55;12.60;99.90
33269;DHT22;19640;50.944;5.260;2023-10-31T09:24:21;12.50;99.90
33269;DHT22;19640;50.944;5.260;2023-10-31T09:26:46;12.50;99.90
33269;DHT22;19640;50.944;5.260;2023-10-31T09:29:12;12.50;99.90
33269;DHT22;19640;50.944;5.260;2023-10-31T09:31:38;12.50;99.90
33269;DHT22;19640;50.944;5.260;2023-10-31T09:34:04;12.60;99.90
33269;DHT22;19640;50.944;5.260;2023-10-31T09:36:33;12.70;99.90
33269;DHT22;19640;50.944;5.260;2023-10-31T09:39:02;12.80;99.90
33269;DHT22;19640;50.944;5.260;2023-10-31T09:41:28;12.90;99.90
33269;DHT22;19640;50.944;5.260;2023-10-31T09:43:54;13.00;99.90
33269;DHT22;19640;50.944;5.260;2023-10-31T09:46:21;13.00;99.90
33269;DHT22;19640;50.944;5.260;2023-10-31T09:48:48;13.10;99.90
33269;DHT22;19640;50.944;5.260;2023-10-31T09:51:14;13.20;99.90
33269;DHT22;19640;50.944;5.260;2023-10-31T09:53:41;13.30;99.90
33269;DHT22;19640;50.944;5.260;2023-10-31T09:56:10;13.30;99.90
33269;DHT22;19640;50.944;5.260;2023-10-31T09:58:36;13.50;99.90
33269;DHT22;19640;50.944;5.260;2023-10-31T10:01:02;13.50;99.90
33269;DHT22;19640;50.944;5.260;2023-10-31T10:03:29;13.40;99.90
33269;DHT22;19640;50.944;5.260;2023-10-31T10:05:55;13.60;99.90
33269;DHT22;19640;50.944;5.260;2023-10-31T10:08:21;13.70;99.90
33269;DHT22;19640;50.944;5.260;2023-10-31T10:10:48;13.80;99.90
33269;DHT22;19640;50.944;5.260;2023-10-31T10:13:17;13.70;99.90
33269;DHT22;19640;50.944;5.260;2023-10-31T10:15:44;13.60;99.90
33269;DHT22;19640;50.944;5.260;2023-10-31T10:18:10;13.40;99.90
33269;DHT22;19640;50.944;5.260;2023-10-31T10:20:35;13.20;99.90
33269;DHT22;19640;50.944;5.260;2023-10-31T10:23:03;13.10;99.90
33269;DHT22;19640;50.944;5.260;2023-10-31T10:25:30;13.10;99.90
33269;DHT22;19640;50.944;5.260;2023-10-31T10:27:56;13.20;99.90
33269;DHT22;19640;50.944;5.260;2023-10-31T10:30:22;13.00;99.90
33269;DHT22;19640;50.944;5.260;2023-10-31T10:32:49;13.00;99.90
33269;DHT22;19640;50.944;5.260;2023-10-31T10:35:16;13.10;99.90
33269;DHT22;19640;50.944;5.260;2023-10-31T10:37:43;13.00;99.90
33269;DHT22;19640;50.944;5.260;2023-10-31T10:40:11;13.10;99.90
33269;DHT22;19640;50.944;5.260;2023-10-31T10:42:47;13.10;99.90
33269;DHT22;19640;50.944;5.260;2023-10-31T10:45:14;13.00;99.90
33269;DHT22;19640;50.944;5.260;2023-10-31T10:47:47;12.80;99.90
33269;DHT22;19640;50.944;5.260;2023-10-31T10:50:13;12.70;99.90
33269;DHT22;19640;50.944;5.260;2023-10-31T10:52:57;12.80;99.90
33269;DHT22;19640;50.944;5.260;2023-10-31T10:55:29;12.80;99.90
33269;DHT22;19640;50.944;5.260;2023-10-31T10:58:05;12.70;99.90
33269;DHT22;19640;50.944;5.260;2023-10-31T11:00:31;12.80;99.90
33269;DHT22;19640;50.944;5.260;2023-10-31T11:02:57;12.80;99.90
33269;DHT22;19640;50.944;5.260;2023-10-31T11:05:24;12.80;99.90
33269;DHT22;19640;50.944;5.260;2023-10-31T11:07:51;12.90;99.90
33269;DHT22;19640;50.944;5.260;2023-10-31T11:10:18;13.10;99.90
33269;DHT22;19640;50.944;5.260;2023-10-31T11:12:44;13.20;99.90
33269;DHT22;19640;50.944;5.260;2023-10-31T11:15:13;13.20;99.90
33269;DHT22;19640;50.944;5.260;2023-10-31T11:17:41;13.20;99.90
33269;DHT22;19640;50.944;5.260;2023-10-31T11:20:10;13.30;99.90
33269;DHT22;19640;50.944;5.260;2023-10-31T11:22:39;13.60;99.90
33269;DHT22;19640;50.944;5.260;2023-10-31T11:25:12;13.60;99.90
33269;DHT22;19640;50.944;5.260;2023-10-31T11:27:38;13.50;99.90
33269;DHT22;19640;50.944;5.260;2023-10-31T11:30:21;13.70;99.90
33269;DHT22;19640;50.944;5.260;2023-10-31T11:32:54;13.70;99.90
33269;DHT22;19640;50.944;5.260;2023-10-31T11:35:21;13.80;99.90
33269;DHT22;19640;50.944;5.260;2023-10-31T11:38:08;13.80;99.90
33269;DHT22;19640;50.944;5.260;2023-10-31T11:40:35;13.80;99.90
33269;DHT22;19640;50.944;5.260;2023-10-31T11:43:05;13.80;99.90
33269;DHT22;19640;50.944;5.260;2023-10-31T11:45:42;13.90;99.90
33269;DHT22;19640;50.944;5.260;2023-10-31T11:48:11;13.90;99.90
33269;DHT22;19640;50.944;5.260;2023-10-31T11:50:37;13.90;99.90
33269;DHT22;19640;50.944;5.260;2023-10-31T11:53:08;13.90;99.90
33269;DHT22;19640;50.944;5.260;2023-10-31T11:55:40;13.90;99.90
33269;DHT22;19640;50.944;5.260;2023-10-31T11:58:23;14.10;99.90
33269;DHT22;19640;50.944;5.260;2023-10-31T12:00:51;13.90;99.90
33269;DHT22;19640;50.944;5.260;2023-10-31T12:03:19;13.90;99.90
33269;DHT22;19640;50.944;5.260;2023-10-31T12:05:55;13.90;99.90
33269;DHT22;19640;50.944;5.260;2023-10-31T12:10:51;14.20;99.90
33269;DHT22;19640;50.944;5.260;2023-10-31T12:13:17;14.30;99.90
33269;DHT22;19640;50.944;5.260;2023-10-31T12:16:00;14.20;99.90
33269;DHT22;19640;50.944;5.260;2023-10-31T12:18:29;14.40;99.90
33269;DHT22;19640;50.944;5.260;2023-10-31T12:20:56;14.30;99.90
33269;DHT22;19640;50.944;5.260;2023-10-31T12:23:21;14.20;99.90
33269;DHT22;19640;50.944;5.260;2023-10-31T12:25:53;14.20;99.90
33269;DHT22;19640;50.944;5.260;2023-10-31T12:28:23;14.00;99.90
33269;DHT22;19640;50.944;5.260;2023-10-31T12:30:51;14.00;99.90
33269;DHT22;19640;50.944;5.260;2023-10-31T12:33:20;14.00;99.90
33269;DHT22;19640;50.944;5.260;2023-10-31T12:35:47;14.10;99.90
33269;DHT22;19640;50.944;5.260;2023-10-31T12:38:14;14.00;99.90
33269;DHT22;19640;50.944;5.260;2023-10-31T12:40:41;13.90;99.90
33269;DHT22;19640;50.944;5.260;2023-10-31T12:43:08;14.00;99.90
33269;DHT22;19640;50.944;5.260;2023-10-31T12:45:34;13.80;99.90
33269;DHT22;19640;50.944;5.260;2023-10-31T12:48:04;13.70;99.90
33269;DHT22;19640;50.944;5.260;2023-10-31T12:50:31;13.60;99.90
33269;DHT22;19640;50.944;5.260;2023-10-31T12:52:57;13.70;99.90
33269;DHT22;19640;50.944;5.260;2023-10-31T12:55:29;13.80;99.90
33269;DHT22;19640;50.944;5.260;2023-10-31T12:57:55;13.70;99.90
33269;DHT22;19640;50.944;5.260;2023-10-31T13:00:29;13.60;99.90
33269;DHT22;19640;50.944;5.260;2023-10-31T13:03:01;13.80;99.90
33269;DHT22;19640;50.944;5.260;2023-10-31T13:05:27;13.80;99.90
33269;DHT22;19640;50.944;5.260;2023-10-31T13:07:55;13.70;99.90
33269;DHT22;19640;50.944;5.260;2023-10-31T13:10:23;13.60;99.90
33269;DHT22;19640;50.944;5.260;2023-10-31T13:12:50;13.50;99.90
33269;DHT22;19640;50.944;5.260;2023-10-31T13:15:17;13.40;99.90
33269;DHT22;19640;50.944;5.260;2023-10-31T13:17:46;13.50;99.90
33269;DHT22;19640;50.944;5.260;2023-10-31T13:20:13;13.60;99.90
33269;DHT22;19640;50.944;5.260;2023-10-31T13:22:40;13.50;99.90
33269;DHT22;19640;50.944;5.260;2023-10-31T13:25:08;13.40;99.90
33269;DHT22;19640;50.944;5.260;2023-10-31T13:27:45;13.20;99.90
33269;DHT22;19640;50.944;5.260;2023-10-31T13:30:16;13.10;99.90
33269;DHT22;19640;50.944;5.260;2023-10-31T13:32:43;13.20;99.90
33269;DHT22;19640;50.944;5.260;2023-10-31T13:35:09;13.10;99.90
33269;DHT22;19640;50.944;5.260;2023-10-31T13:37:36;13.00;99.90
33269;DHT22;19640;50.944;5.260;2023-10-31T13:40:02;12.90;99.90
33269;DHT22;19640;50.944;5.260;2023-10-31T13:42:29;12.90;99.90
33269;DHT22;19640;50.944;5.260;2023-10-31T13:44:55;13.00;99.90
33269;DHT22;19640;50.944;5.260;2023-10-31T13:47:21;12.80;99.90
33269;DHT22;19640;50.944;5.260;2023-10-31T13:49:47;12.70;99.90
33269;DHT22;19640;50.944;5.260;2023-10-31T13:52:14;12.70;99.90
33269;DHT22;19640;50.944;5.260;2023-10-31T13:54:39;12.70;99.90
33269;DHT22;19640;50.944;5.260;2023-10-31T13:57:05;12.80;99.90
33269;DHT22;19640;50.944;5.260;2023-10-31T13:59:30;12.80;99.90
33269;DHT22;19640;50.944;5.260;2023-10-31T14:01:57;12.70;99.90
33269;DHT22;19640;50.944;5.260;2023-10-31T14:04:22;12.80;99.90
33269;DHT22;19640;50.944;5.260;2023-10-31T14:06:48;12.90;99.90
33269;DHT22;19640;50.944;5.260;2023-10-31T14:09:14;12.70;99.90
33269;DHT22;19640;50.944;5.260;2023-10-31T14:11:41;12.70;99.90
33269;DHT22;19640;50.944;5.260;2023-10-31T14:14:07;12.80;99.90
33269;DHT22;19640;50.944;5.260;2023-10-31T14:16:36;12.70;99.90
33269;DHT22;19640;50.944;5.260;2023-10-31T14:19:02;12.60;99.90
33269;DHT22;19640;50.944;5.260;2023-10-31T14:21:29;12.50;99.90
33269;DHT22;19640;50.944;5.260;2023-10-31T14:23:54;12.60;99.90
33269;DHT22;19640;50.944;5.260;2023-10-31T14:26:21;12.50;99.90
33269;DHT22;19640;50.944;5.260;2023-10-31T14:28:47;12.40;99.90
33269;DHT22;19640;50.944;5.260;2023-10-31T14:31:14;12.50;99.90
33269;DHT22;19640;50.944;5.260;2023-10-31T14:33:41;12.50;99.90
33269;DHT22;19640;50.944;5.260;2023-10-31T14:36:07;12.60;99.90
33269;DHT22;19640;50.944;5.260;2023-10-31T14:38:35;12.50;99.90
33269;DHT22;19640;50.944;5.260;2023-10-31T14:41:01;12.50;99.90
33269;DHT22;19640;50.944;5.260;2023-10-31T14:43:27;12.60;99.90
33269;DHT22;19640;50.944;5.260;2023-10-31T14:45:52;12.60;99.90
33269;DHT22;19640;50.944;5.260;2023-10-31T14:48:20;12.60;99.90
33269;DHT22;19640;50.944;5.260;2023-10-31T14:50:47;12.80;99.90
33269;DHT22;19640;50.944;5.260;2023-10-31T14:53:14;12.80;99.90
33269;DHT22;19640;50.944;5.260;2023-10-31T14:55:40;12.80;99.90
33269;DHT22;19640;50.944;5.260;2023-10-31T14:58:05;12.80;99.90
33269;DHT22;19640;50.944;5.260;2023-10-31T15:00:35;12.90;99.90
33269;DHT22;19640;50.944;5.260;2023-10-31T15:03:01;13.10;99.90
33269;DHT22;19640;50.944;5.260;2023-10-31T15:05:27;12.90;99.90
33269;DHT22;19640;50.944;5.260;2023-10-31T15:07:53;13.00;99.90
33269;DHT22;19640;50.944;5.260;2023-10-31T15:10:21;13.00;99.90
33269;DHT22;19640;50.944;5.260;2023-10-31T15:12:48;13.10;99.90
33269;DHT22;19640;50.944;5.260;2023-10-31T15:15:15;13.10;99.90
33269;DHT22;19640;50.944;5.260;2023-10-31T15:17:41;13.10;99.90
33269;DHT22;19640;50.944;5.260;2023-10-31T15:20:07;13.20;99.90
33269;DHT22;19640;50.944;5.260;2023-10-31T15:22:36;13.20;99.90
33269;DHT22;19640;50.944;5.260;2023-10-31T15:25:02;12.90;99.90
33269;DHT22;19640;50.944;5.260;2023-10-31T15:27:28;12.90;99.90
33269;DHT22;19640;50.944;5.260;2023-10-31T15:29:53;12.90;99.90